createdAt,value
2019-03-01T00:01:25.709Z,22.80
2019-03-01T00:04:00.120Z,22.80
2019-03-01T00:06:46.979Z,22.90
2019-03-01T00:09:36.412Z,22.80
2019-03-01T00:12:31.576Z,22.90
2019-03-01T00:15:40.382Z,22.80
2019-03-01T00:19:01.163Z,22.80
2019-03-01T00:21:54.522Z,22.80
2019-03-01T00:25:00.794Z,22.80
2019-03-01T00:28:07.932Z,22.80
2019-03-01T00:31:01.608Z,22.70
2019-03-01T00:34:01.748Z,22.80
2019-03-01T00:37:25.434Z,22.80
2019-03-01T00:40:17.437Z,22.80
2019-03-01T00:43:24.789Z,22.80
2019-03-01T00:45:55.054Z,22.80
2019-03-01T00:48:25.301Z,22.70
2019-03-01T00:50:55.662Z,22.70
2019-03-01T00:53:26.056Z,22.80
2019-03-01T00:55:56.541Z,22.70
2019-03-01T00:58:26.989Z,22.70
2019-03-01T01:00:57.255Z,22.70
2019-03-01T01:03:28.747Z,22.70
2019-03-01T01:05:59.229Z,22.70
2019-03-01T01:08:29.633Z,22.70
2019-03-01T01:10:59.971Z,22.70
2019-03-01T01:13:30.287Z,22.70
2019-03-01T01:16:00.496Z,22.70
2019-03-01T01:18:31.020Z,22.70
2019-03-01T01:21:01.464Z,22.70
2019-03-01T01:23:31.887Z,22.70
2019-03-01T01:26:02.141Z,22.70
2019-03-01T01:28:32.531Z,22.60
2019-03-01T01:31:02.978Z,22.60
2019-03-01T01:33:33.460Z,22.70
2019-03-01T01:36:03.936Z,22.60
2019-03-01T01:38:34.234Z,22.60
2019-03-01T01:41:04.699Z,22.60
2019-03-01T01:43:35.205Z,22.60
2019-03-01T01:46:05.578Z,22.60
2019-03-01T01:48:35.813Z,22.60
2019-03-01T01:51:06.302Z,22.60
2019-03-01T01:53:36.688Z,22.60
2019-03-01T01:56:07.128Z,22.60
2019-03-01T01:58:37.548Z,22.60
2019-03-01T02:01:07.959Z,22.60
2019-03-01T02:03:38.259Z,22.60
2019-03-01T02:06:08.693Z,22.60
2019-03-01T02:08:39.131Z,22.60
2019-03-01T02:11:09.444Z,22.60
2019-03-01T02:13:39.812Z,22.60
2019-03-01T02:16:10.228Z,22.60
2019-03-01T02:18:40.615Z,22.50
2019-03-01T02:21:11.105Z,22.60
2019-03-01T02:23:53.571Z,22.50
2019-03-01T02:26:23.913Z,22.50
2019-03-01T02:28:54.203Z,22.50
2019-03-01T02:31:24.732Z,22.50
2019-03-01T02:33:55.012Z,22.50
2019-03-01T02:36:25.385Z,22.50
2019-03-01T02:38:55.831Z,22.50
2019-03-01T02:41:38.390Z,22.50
2019-03-01T02:44:08.799Z,22.50
2019-03-01T02:46:39.138Z,22.50
2019-03-01T02:49:09.577Z,22.50
2019-03-01T02:51:39.884Z,22.50
2019-03-01T02:54:10.189Z,22.50
2019-03-01T02:56:40.709Z,22.50
2019-03-01T02:59:11.098Z,22.50
2019-03-01T03:01:41.416Z,22.50
2019-03-01T03:04:11.797Z,22.50
2019-03-01T03:06:53.831Z,22.50
2019-03-01T03:09:24.282Z,22.50
2019-03-01T03:11:54.733Z,22.50
2019-03-01T03:14:25.409Z,22.50
2019-03-01T03:16:55.852Z,22.50
2019-03-01T03:19:27.810Z,22.50
2019-03-01T03:21:58.135Z,22.50
2019-03-01T03:24:28.523Z,22.40
2019-03-01T03:26:58.855Z,22.40
2019-03-01T03:29:29.346Z,22.50
2019-03-01T03:32:18.843Z,22.40
2019-03-01T03:34:49.231Z,22.40
2019-03-01T03:37:19.672Z,22.40
2019-03-01T03:39:49.962Z,22.50
2019-03-01T03:42:20.443Z,22.40
2019-03-01T03:45:02.471Z,22.40
2019-03-01T03:47:32.956Z,22.40
2019-03-01T03:50:03.524Z,22.40
2019-03-01T03:52:33.936Z,22.40
2019-03-01T03:55:04.385Z,22.40
2019-03-01T03:57:34.802Z,22.40
2019-03-01T04:00:06.636Z,22.40
2019-03-01T04:02:37.116Z,22.40
2019-03-01T04:05:07.654Z,22.40
2019-03-01T04:07:38.445Z,22.40
2019-03-01T04:10:27.870Z,22.40
2019-03-01T04:12:58.198Z,22.40
2019-03-01T04:15:28.482Z,22.40
2019-03-01T04:18:10.697Z,22.40
2019-03-01T04:20:40.966Z,22.40
2019-03-01T04:23:11.373Z,22.40
2019-03-01T04:25:42.159Z,22.40
2019-03-01T04:28:12.576Z,22.40
2019-03-01T04:30:55.010Z,22.40
2019-03-01T04:33:25.431Z,22.40
2019-03-01T04:35:55.750Z,22.40
2019-03-01T04:38:26.055Z,22.40
2019-03-01T04:40:56.481Z,22.40
2019-03-01T04:43:28.896Z,22.30
2019-03-01T04:45:59.284Z,22.40
2019-03-01T04:48:31.630Z,22.40
2019-03-01T04:51:01.967Z,22.30
2019-03-01T04:53:32.316Z,22.40
2019-03-01T04:56:02.648Z,22.40
2019-03-01T04:58:32.981Z,22.40
2019-03-01T05:01:03.890Z,22.30
2019-03-01T05:03:34.360Z,22.40
2019-03-01T05:06:04.811Z,22.40
2019-03-01T05:08:35.155Z,22.30
2019-03-01T05:11:05.659Z,22.40
2019-03-01T05:13:36.019Z,22.30
2019-03-01T05:16:06.340Z,22.30
2019-03-01T05:18:37.069Z,22.30
2019-03-01T05:21:07.432Z,22.30
2019-03-01T05:23:37.721Z,22.30
2019-03-01T05:26:07.927Z,22.30
2019-03-01T05:28:38.350Z,22.30
2019-03-01T05:31:08.628Z,22.30
2019-03-01T05:33:38.842Z,22.30
2019-03-01T05:36:09.323Z,22.40
2019-03-01T05:38:39.600Z,22.30
2019-03-01T05:41:09.836Z,22.40
2019-03-01T05:43:40.215Z,22.40
2019-03-01T05:46:10.624Z,22.30
2019-03-01T05:48:40.949Z,22.40
2019-03-01T05:51:11.208Z,22.40
2019-03-01T05:53:41.505Z,22.40
2019-03-01T05:56:11.742Z,22.40
2019-03-01T05:59:12.765Z,22.40
2019-03-01T06:02:29.191Z,22.40
2019-03-01T06:05:02.518Z,22.40
2019-03-01T06:08:22.877Z,22.40
2019-03-01T06:11:04.940Z,22.40
2019-03-01T06:14:04.736Z,22.40
2019-03-01T06:17:11.609Z,22.40
2019-03-01T06:20:15.433Z,22.40
2019-03-01T06:23:11.825Z,22.40
2019-03-01T06:26:16.749Z,22.40
2019-03-01T06:29:33.967Z,22.40
2019-03-01T06:32:31.011Z,22.40
2019-03-01T06:35:28.660Z,22.40
2019-03-01T06:39:16.551Z,22.40
2019-03-01T06:41:57.360Z,22.40
2019-03-01T06:45:07.621Z,22.40
2019-03-01T06:47:49.071Z,22.50
2019-03-01T06:50:41.783Z,22.40
2019-03-01T06:53:12.308Z,22.40
2019-03-01T06:55:51.354Z,22.40
2019-03-01T06:58:45.355Z,22.30
2019-03-01T07:01:22.283Z,22.30
2019-03-01T07:04:02.993Z,22.30
2019-03-01T07:06:36.142Z,22.20
2019-03-01T07:09:08.469Z,22.10
2019-03-01T07:11:39.738Z,22.20
2019-03-01T07:14:12.494Z,22.20
2019-03-01T07:16:46.256Z,22.20
2019-03-01T07:19:20.204Z,22.20
2019-03-01T07:24:23.312Z,22.20
2019-03-01T07:27:09.499Z,22.20
2019-03-01T07:29:53.313Z,22.20
2019-03-01T07:41:23.671Z,22.40
2019-03-01T07:44:17.039Z,22.30
2019-03-01T07:49:57.622Z,22.30
2019-03-01T07:58:57.487Z,22.20
2019-03-01T08:01:48.029Z,22.20
2019-03-01T08:10:21.351Z,22.00
2019-03-01T08:16:36.963Z,22.00
2019-03-01T08:19:08.230Z,22.10
2019-03-01T08:21:49.586Z,22.00
2019-03-01T08:24:20.281Z,22.00
2019-03-01T08:32:50.791Z,21.70
2019-03-01T08:38:25.491Z,21.60
2019-03-01T08:46:21.850Z,21.60
2019-03-01T08:48:48.950Z,21.60
2019-03-01T08:51:22.709Z,21.60
2019-03-01T08:56:35.054Z,21.70
2019-03-01T08:59:09.588Z,21.70
2019-03-01T09:01:45.082Z,21.70
2019-03-01T09:04:17.664Z,21.60
2019-03-01T09:36:07.328Z,21.70
2019-03-01T09:47:08.423Z,21.90
2019-03-01T09:52:10.337Z,21.90
2019-03-01T09:55:21.567Z,22.00
2019-03-01T09:58:13.316Z,22.00
2019-03-01T10:00:56.037Z,22.10
2019-03-01T10:03:20.156Z,22.10
2019-03-01T10:05:53.661Z,22.10
2019-03-01T10:11:18.954Z,22.20
2019-03-01T10:14:08.635Z,22.10
2019-03-01T10:23:07.708Z,22.10
2019-03-01T10:25:56.310Z,22.10
2019-03-01T10:33:52.958Z,22.10
2019-03-01T10:36:27.886Z,22.20
2019-03-01T10:39:05.548Z,22.30
2019-03-01T10:53:03.415Z,22.60
2019-03-01T10:55:35.607Z,22.60
2019-03-01T11:04:33.721Z,22.70
2019-03-01T11:07:05.028Z,22.70
2019-03-01T11:09:37.527Z,22.70
2019-03-01T11:12:08.565Z,22.50
2019-03-01T11:14:40.538Z,22.50
2019-03-01T11:17:12.282Z,22.40
2019-03-01T11:19:44.016Z,22.50
2019-03-01T11:33:37.358Z,22.60
2019-03-01T11:36:27.209Z,22.70
2019-03-01T11:38:58.305Z,22.70
2019-03-01T11:41:28.830Z,22.70
2019-03-01T11:43:59.432Z,22.70
2019-03-01T11:46:36.151Z,22.70
2019-03-01T12:01:16.909Z,22.70
2019-03-01T12:06:40.741Z,22.40
2019-03-01T12:09:47.871Z,22.10
2019-03-01T12:18:57.680Z,21.70
2019-03-01T12:21:35.489Z,21.50
2019-03-01T12:24:12.875Z,21.30
2019-03-01T12:26:52.063Z,21.20
2019-03-01T12:29:25.202Z,21.00
2019-03-01T12:31:57.259Z,20.80
2019-03-01T12:34:30.352Z,20.80
2019-03-01T12:37:00.992Z,20.70
2019-03-01T12:40:07.535Z,20.40
2019-03-01T12:43:00.775Z,20.40
2019-03-01T12:45:39.097Z,20.40
2019-03-01T12:48:12.893Z,20.20
2019-03-01T12:50:47.353Z,19.80
2019-03-01T12:53:51.843Z,19.80
2019-03-01T12:56:13.962Z,19.80
2019-03-01T12:58:44.257Z,19.90
2019-03-01T13:01:17.237Z,20.10
2019-03-01T13:03:53.647Z,20.20
2019-03-01T13:06:24.790Z,20.30
2019-03-01T13:12:04.740Z,20.20
2019-03-01T13:14:40.731Z,20.00
2019-03-01T13:17:13.332Z,19.90
2019-03-01T13:19:44.139Z,19.70
2019-03-01T13:46:19.922Z,19.70
2019-03-01T13:51:45.074Z,19.70
2019-03-01T14:00:41.898Z,19.60
2019-03-01T14:09:03.811Z,19.70
2019-03-01T14:11:37.013Z,19.80
2019-03-01T14:14:10.729Z,19.80
2019-03-01T14:16:42.800Z,19.80
2019-03-01T14:19:13.523Z,19.90
2019-03-01T14:21:44.263Z,20.00
2019-03-01T14:24:14.592Z,20.00
2019-03-01T14:26:45.308Z,19.80
2019-03-01T14:29:16.198Z,20.00
2019-03-01T14:31:47.286Z,20.00
2019-03-01T14:34:25.265Z,20.00
2019-03-01T14:36:55.830Z,20.00
2019-03-01T14:39:26.437Z,20.10
2019-03-01T14:41:58.495Z,20.10
2019-03-01T14:44:33.934Z,20.10
2019-03-01T14:47:04.863Z,20.10
2019-03-01T14:49:35.905Z,20.10
2019-03-01T14:52:06.454Z,20.10
2019-03-01T14:54:37.916Z,20.20
2019-03-01T14:57:33.501Z,20.00
2019-03-01T15:00:16.072Z,19.90
2019-03-01T15:03:05.184Z,19.90
2019-03-01T15:05:42.932Z,19.90
2019-03-01T15:08:22.581Z,20.00
2019-03-01T15:13:20.536Z,20.00
2019-03-01T15:18:25.147Z,20.00
2019-03-01T15:21:05.819Z,19.90
2019-03-01T15:23:43.338Z,19.70
2019-03-01T15:31:51.234Z,19.10
2019-03-01T15:37:06.904Z,18.70
2019-03-01T15:39:39.199Z,18.60
2019-03-01T15:42:28.990Z,18.30
2019-03-01T15:45:05.068Z,18.10
2019-03-01T15:47:42.537Z,17.90
2019-03-01T15:52:49.652Z,17.90
2019-03-01T15:55:25.229Z,17.80
2019-03-01T15:58:18.445Z,17.70
2019-03-01T16:00:49.664Z,17.60
2019-03-01T16:03:18.957Z,17.60
2019-03-01T16:05:49.795Z,17.60
2019-03-01T16:08:31.970Z,17.60
2019-03-01T16:16:17.693Z,17.20
2019-03-01T16:18:48.507Z,17.10
2019-03-01T16:21:27.195Z,17.20
2019-03-01T16:26:38.050Z,17.50
2019-03-01T16:32:00.965Z,18.30
2019-03-01T16:34:31.143Z,17.40
2019-03-01T16:37:00.589Z,17.50
2019-03-01T16:39:30.977Z,17.50
2019-03-01T16:42:01.384Z,17.50
2019-03-01T16:44:31.784Z,17.70
2019-03-01T16:47:03.536Z,17.90
2019-03-01T16:49:34.107Z,18.00
2019-03-01T16:52:04.470Z,18.30
2019-03-01T16:54:34.971Z,18.50
2019-03-01T16:57:05.399Z,18.70
2019-03-01T16:59:39.554Z,18.80
2019-03-01T17:06:22.068Z,19.10
2019-03-01T17:09:06.737Z,19.20
2019-03-01T17:11:37.679Z,19.40
2019-03-01T17:14:47.932Z,19.60
2019-03-01T17:17:28.631Z,19.60
2019-03-01T17:33:33.458Z,20.10
2019-03-01T17:36:06.544Z,20.20
2019-03-01T17:38:43.510Z,20.20
2019-03-01T17:41:12.643Z,20.50
2019-03-01T17:51:23.622Z,20.60
2019-03-01T17:53:54.039Z,20.60
2019-03-01T17:56:25.525Z,20.60
2019-03-01T17:59:03.871Z,20.70
2019-03-01T18:02:05.470Z,20.80
2019-03-01T18:04:36.894Z,20.80
2019-03-01T18:07:12.071Z,20.90
2019-03-01T18:09:44.197Z,20.90
2019-03-01T18:12:17.465Z,21.00
2019-03-01T18:14:46.670Z,21.10
2019-03-01T18:17:17.066Z,21.10
2019-03-01T18:19:47.504Z,21.10
2019-03-01T18:22:17.982Z,21.20
2019-03-01T18:24:49.936Z,21.20
2019-03-01T18:27:20.466Z,21.20
2019-03-01T18:29:51.901Z,21.30
2019-03-01T18:32:22.438Z,21.30
2019-03-01T18:37:55.079Z,21.40
2019-03-01T18:40:24.089Z,21.40
2019-03-01T18:42:54.489Z,21.50
2019-03-01T18:45:24.817Z,21.50
2019-03-01T18:47:55.308Z,21.50
2019-03-01T18:50:27.628Z,21.50
2019-03-01T18:52:59.532Z,21.50
2019-03-01T18:55:29.802Z,21.50
2019-03-01T18:58:00.099Z,21.60
2019-03-01T19:00:35.659Z,21.60
2019-03-01T19:03:05.474Z,21.60
2019-03-01T19:05:36.624Z,21.60
2019-03-01T19:08:08.235Z,21.60
2019-03-01T19:10:38.565Z,21.60
2019-03-01T19:13:08.955Z,21.70
2019-03-01T19:15:39.380Z,21.60
2019-03-01T19:18:09.773Z,21.60
2019-03-01T19:20:41.508Z,21.70
2019-03-01T19:23:12.295Z,21.70
2019-03-01T19:25:42.694Z,21.70
2019-03-01T19:28:13.067Z,21.70
2019-03-01T19:30:45.940Z,21.70
2019-03-01T19:33:17.213Z,21.70
2019-03-01T19:35:47.769Z,21.70
2019-03-01T19:38:18.187Z,21.70
2019-03-01T19:40:48.544Z,21.70
2019-03-01T19:43:18.880Z,21.70
2019-03-01T19:45:49.317Z,21.80
2019-03-01T19:48:19.811Z,21.80
2019-03-01T19:50:50.223Z,21.80
2019-03-01T19:53:21.623Z,21.80
2019-03-01T19:55:52.753Z,21.80
2019-03-01T19:58:23.303Z,21.80
2019-03-01T20:00:53.575Z,21.80
2019-03-01T20:03:23.964Z,21.80
2019-03-01T20:05:54.438Z,21.80
2019-03-01T20:08:26.486Z,21.80
2019-03-01T20:10:56.856Z,21.80
2019-03-01T20:13:28.321Z,21.80
2019-03-01T20:15:58.778Z,21.80
2019-03-01T20:18:29.152Z,21.80
2019-03-01T20:20:59.563Z,21.80
2019-03-01T20:23:30.766Z,21.80
2019-03-01T20:26:01.144Z,21.80
2019-03-01T20:28:31.632Z,21.80
2019-03-01T20:31:04.960Z,21.90
2019-03-01T20:33:34.974Z,21.90
2019-03-01T20:36:05.320Z,21.90
2019-03-01T20:38:37.135Z,21.90
2019-03-01T20:41:07.968Z,21.90
2019-03-01T20:43:41.736Z,21.90
2019-03-01T20:46:10.328Z,21.90
2019-03-01T20:48:40.719Z,21.90
2019-03-01T20:51:11.020Z,21.90
2019-03-01T20:53:41.460Z,21.90
2019-03-01T20:56:13.490Z,21.90
2019-03-01T20:58:43.770Z,21.90
2019-03-01T21:01:14.518Z,21.80
2019-03-01T21:03:44.894Z,21.80
2019-03-01T21:06:15.315Z,21.80
2019-03-01T21:08:45.802Z,21.80
2019-03-01T21:11:16.188Z,21.90
2019-03-01T21:13:49.035Z,21.80
2019-03-01T21:16:18.556Z,21.80
2019-03-01T21:18:48.924Z,21.80
2019-03-01T21:21:19.203Z,21.80
2019-03-01T21:23:50.953Z,21.80
2019-03-01T21:26:21.493Z,21.80
2019-03-01T21:28:52.071Z,21.80
2019-03-01T21:31:22.498Z,21.80
2019-03-01T21:33:52.859Z,21.80
2019-03-01T21:36:26.272Z,21.80
2019-03-01T21:38:55.187Z,21.80
2019-03-01T21:41:26.679Z,21.80
2019-03-01T21:43:57.085Z,21.80
2019-03-01T21:46:30.555Z,21.80
2019-03-01T21:49:00.483Z,21.80
2019-03-01T21:51:31.871Z,21.80
2019-03-01T21:54:02.264Z,21.80
2019-03-01T21:56:32.695Z,21.70
2019-03-01T21:59:03.061Z,21.70
2019-03-01T22:01:33.480Z,21.80
2019-03-01T22:04:03.867Z,21.70
2019-03-01T22:06:35.159Z,21.70
2019-03-01T22:09:06.278Z,21.70
2019-03-01T22:11:38.235Z,21.70
2019-03-01T22:14:10.763Z,21.70
2019-03-01T22:16:40.629Z,21.70
2019-03-01T22:19:10.987Z,21.70
2019-03-01T22:21:41.373Z,21.70
2019-03-01T22:24:11.686Z,21.70
2019-03-01T22:26:42.342Z,21.70
2019-03-01T22:29:13.025Z,21.70
2019-03-01T22:31:43.535Z,21.70
2019-03-01T22:34:13.848Z,21.70
2019-03-01T22:36:44.176Z,21.70
2019-03-01T22:39:16.576Z,21.70
2019-03-01T22:41:46.514Z,21.70
2019-03-01T22:44:16.851Z,21.70
2019-03-01T22:46:47.173Z,21.70
2019-03-01T22:49:17.578Z,21.70
2019-03-01T22:51:49.658Z,21.70
2019-03-01T22:54:20.083Z,21.70
2019-03-01T22:56:50.453Z,21.70
2019-03-01T22:59:21.023Z,21.70
2019-03-01T23:01:53.742Z,21.70
2019-03-01T23:04:26.601Z,21.70
2019-03-01T23:06:56.551Z,21.70
2019-03-01T23:09:27.103Z,21.70
2019-03-01T23:11:59.082Z,21.70
2019-03-01T23:14:30.716Z,21.70
2019-03-01T23:17:01.451Z,21.70
2019-03-01T23:19:32.895Z,21.60
2019-03-01T23:22:03.274Z,21.70
2019-03-01T23:24:35.103Z,21.70
2019-03-01T23:27:05.679Z,21.70
2019-03-01T23:29:36.103Z,21.60
2019-03-01T23:32:06.467Z,21.70
2019-03-01T23:34:38.932Z,21.60
2019-03-01T23:37:08.957Z,21.70
2019-03-01T23:39:39.314Z,21.70
2019-03-01T23:42:09.751Z,21.60
2019-03-01T23:44:41.522Z,21.60
2019-03-01T23:47:13.339Z,21.70
2019-03-01T23:49:44.681Z,21.70
2019-03-01T23:52:15.124Z,21.60
2019-03-01T23:54:47.210Z,21.70
2019-03-01T23:57:17.391Z,21.70
2019-03-01T23:59:47.804Z,21.60
